Time;durP1;ratioP1;P1;durP2;ratioP2;P2;SDS_P1;SDS_P2;PMS_P1;PMS_P2;Temp;Humidity;BMP_temperature;BMP_pressure;BME280_temperature;BME280_humidity;BME280_pressure;Samples;Min_cycle;Max_cycle;Signal;HPM_P1;HPM_P2
2021/07/27 00:00:50;;;;;;;21.58;14.00;;;;;;;19.64;78.77;101159.09;5043603;28;20033;-57
2021/07/27 00:03:15;;;;;;;20.27;14.32;;;;;;;19.36;81.88;101161.69;5043250;28;20146;-55
2021/07/27 00:05:41;;;;;;;19.63;13.50;;;;;;;19.36;81.39;101163.59;5043691;28;20108;-56
2021/07/27 00:08:07;;;;;;;18.40;13.70;;;;;;;19.44;80.49;101160.22;5041539;28;20029;-57
2021/07/27 00:10:35;;;;;;;17.65;12.82;;;;;;;19.48;79.95;101159.31;5048416;28;20020;-56
2021/07/27 00:13:07;;;;;;;16.30;12.77;;;;;;;19.52;79.15;101160.34;5045185;28;20459;-55
2021/07/27 00:15:33;;;;;;;16.85;12.98;;;;;;;19.52;78.86;101154.91;5043995;28;20390;-56
2021/07/27 00:17:58;;;;;;;23.10;13.90;;;;;;;19.54;78.96;101155.44;5042370;28;20025;-57
2021/07/27 00:20:25;;;;;;;18.42;13.38;;;;;;;19.51;79.09;101150.56;5046240;28;20100;-57
2021/07/27 00:22:51;;;;;;;20.98;14.32;;;;;;;19.47;79.04;101155.00;5025429;28;20033;-56
2021/07/27 00:25:16;;;;;;;18.55;13.60;;;;;;;19.44;79.21;101157.50;5040555;28;20055;-57
2021/07/27 00:27:43;;;;;;;18.40;13.93;;;;;;;19.35;79.51;101153.84;5028113;28;20506;-57
2021/07/27 00:30:09;;;;;;;17.17;13.30;;;;;;;19.31;79.85;101154.44;5045466;28;20086;-57
2021/07/27 00:32:36;;;;;;;19.58;13.93;;;;;;;19.31;79.32;101148.19;5044686;28;20086;-57
2021/07/27 00:35:03;;;;;;;40.15;13.52;;;;;;;19.30;78.58;101150.13;5043147;28;20036;-57
2021/07/27 00:37:31;;;;;;;35.55;14.30;;;;;;;19.25;78.65;101150.19;5040475;28;20033;-57
2021/07/27 00:39:56;;;;;;;27.92;14.80;;;;;;;19.21;78.71;101145.63;5041712;28;20495;-57
2021/07/27 00:42:22;;;;;;;20.00;12.77;;;;;;;19.17;78.86;101142.72;5043851;28;20061;-57
2021/07/27 00:44:47;;;;;;;17.92;12.32;;;;;;;19.12;78.76;101137.38;5039987;28;20025;-56
2021/07/27 00:47:13;;;;;;;18.52;12.77;;;;;;;19.07;78.87;101137.47;5047356;28;20029;-57
2021/07/27 00:49:39;;;;;;;21.42;12.15;;;;;;;19.04;78.61;101131.81;5049421;28;20059;-56
2021/07/27 00:52:05;;;;;;;19.75;14.45;;;;;;;18.88;80.22;101133.94;5047855;28;20032;-57
2021/07/27 00:54:31;;;;;;;22.52;15.07;;;;;;;18.65;83.79;101127.47;5049011;28;20052;-56
2021/07/27 00:56:57;;;;;;;22.13;15.35;;;;;;;18.69;83.88;101129.31;5048004;28;20472;-57
2021/07/27 00:59:22;;;;;;;21.00;15.00;;;;;;;18.64;85.83;101118.50;5047025;28;20095;-57
2021/07/27 01:01:48;;;;;;;20.90;16.00;;;;;;;18.56;87.13;101127.28;5045020;28;20036;-57
2021/07/27 01:04:13;;;;;;;21.33;14.25;;;;;;;18.74;85.13;101117.59;5048149;28;20155;-57
2021/07/27 01:06:39;;;;;;;21.92;13.60;;;;;;;18.88;83.38;101117.66;5044870;28;20040;-57
2021/07/27 01:09:05;;;;;;;31.20;13.57;;;;;;;18.93;82.28;101118.38;5046980;28;20175;-57
2021/07/27 01:11:30;;;;;;;30.10;13.75;;;;;;;18.98;80.94;101121.00;5046649;28;20035;-57
2021/07/27 01:13:56;;;;;;;42.40;14.45;;;;;;;18.99;79.96;101124.53;5045641;28;20033;-57
2021/07/27 01:16:28;;;;;;;20.90;13.50;;;;;;;18.96;79.71;101123.22;5045664;28;20021;-57
2021/07/27 01:19:12;;;;;;;19.75;12.48;;;;;;;18.94;79.52;101124.63;5049426;28;20082;-57
2021/07/27 01:43:45;;;;;;;24.60;14.13;;;;;;;18.97;81.98;101146.53;5025289;28;20494;-57
2021/07/27 01:46:14;;;;;;;22.08;15.77;;;;;;;18.96;82.31;101144.13;5047288;28;20471;-57
2021/07/27 01:48:40;;;;;;;24.70;15.68;;;;;;;18.92;82.40;101149.34;5048661;28;20047;-56
2021/07/27 01:51:06;;;;;;;20.77;13.45;;;;;;;18.89;82.48;101147.22;5047187;28;20933;-57
2021/07/27 01:53:44;;;;;;;22.08;14.52;;;;;;;18.86;82.55;101147.00;5046229;28;20051;-56
2021/07/27 01:56:10;;;;;;;20.20;14.60;;;;;;;18.84;82.56;101150.00;5047443;28;20108;-57
2021/07/27 01:58:36;;;;;;;21.70;14.55;;;;;;;18.84;82.55;101141.03;5046118;28;20856;-56
2021/07/27 02:01:01;;;;;;;21.27;14.48;;;;;;;18.77;82.50;101144.13;5045609;28;20032;-56
2021/07/27 02:03:27;;;;;;;22.75;16.23;;;;;;;18.75;82.64;101150.97;5045409;28;20032;-57
2021/07/27 02:05:52;;;;;;;23.05;14.98;;;;;;;18.70;82.65;101143.69;5047175;28;20055;-57
2021/07/27 02:08:18;;;;;;;21.83;14.48;;;;;;;18.68;82.93;101151.34;5024072;28;20364;-55
2021/07/27 02:10:48;;;;;;;21.52;15.80;;;;;;;18.67;82.98;101147.81;5046107;28;20053;-56
2021/07/27 02:13:24;;;;;;;24.02;14.55;;;;;;;18.66;83.37;101146.16;5046373;28;20394;-57
2021/07/27 02:15:49;;;;;;;20.95;14.88;;;;;;;18.66;83.24;101148.88;5045552;28;20403;-57
2021/07/27 02:18:14;;;;;;;25.33;15.18;;;;;;;18.70;83.17;101152.66;5049514;28;20063;-57
2021/07/27 02:20:44;;;;;;;20.42;13.93;;;;;;;18.71;83.02;101153.47;5046766;28;20485;-56
2021/07/27 02:23:10;;;;;;;18.25;14.23;;;;;;;18.70;83.13;101162.69;5048103;28;20447;-56
2021/07/27 02:25:35;;;;;;;17.40;13.35;;;;;;;18.76;82.75;101158.00;5045288;28;20055;-57
2021/07/27 02:28:03;;;;;;;20.27;13.73;;;;;;;18.72;82.75;101160.50;5050149;28;20036;-55
2021/07/27 02:30:32;;;;;;;21.40;14.50;;;;;;;18.67;82.85;101150.53;5045182;28;20661;-56
2021/07/27 02:32:58;;;;;;;21.23;14.07;;;;;;;18.63;82.95;101146.75;5048029;28;20031;-56
2021/07/27 02:35:32;;;;;;;19.08;14.18;;;;;;;18.59;82.90;101145.69;5048583;28;20391;-56
2021/07/27 02:37:57;;;;;;;22.88;14.50;;;;;;;18.54;82.72;101144.97;5048016;28;20028;-56
2021/07/27 02:40:23;;;;;;;18.75;13.65;;;;;;;18.48;83.25;101148.81;5047997;28;20403;-56
2021/07/27 02:42:48;;;;;;;19.55;14.05;;;;;;;18.45;83.03;101142.09;5046668;28;20383;-56
2021/07/27 02:45:14;;;;;;;20.52;15.27;;;;;;;18.39;83.18;101143.25;5048415;28;20120;-56
2021/07/27 02:47:41;;;;;;;19.65;13.00;;;;;;;18.39;83.39;101135.94;5052011;28;20165;-56
2021/07/27 02:50:08;;;;;;;20.17;13.65;;;;;;;18.35;83.32;101134.91;5045354;28;20060;-55
2021/07/27 02:52:34;;;;;;;21.02;14.02;;;;;;;18.29;83.39;101129.81;5047002;28;20025;-56
2021/07/27 02:55:00;;;;;;;21.67;14.40;;;;;;;18.26;83.13;101127.69;5046281;28;20082;-55
2021/07/27 02:57:25;;;;;;;19.17;13.68;;;;;;;18.20;83.17;101124.22;5045486;28;20490;-56
2021/07/27 02:59:51;;;;;;;21.83;15.57;;;;;;;18.16;83.38;101136.75;5047127;28;20059;-56
2021/07/27 03:02:19;;;;;;;23.70;16.48;;;;;;;18.20;83.69;101126.13;5041556;28;20031;-54
2021/07/27 03:04:45;;;;;;;21.88;15.45;;;;;;;18.22;84.10;101135.59;5043252;28;20467;-54
2021/07/27 03:07:18;;;;;;;26.63;16.50;;;;;;;18.24;84.71;101135.31;5046200;28;20040;-56
2021/07/27 03:12:27;;;;;;;19.38;13.68;;;;;;;18.21;84.24;101142.13;5044070;28;20086;-56
2021/07/27 03:14:59;;;;;;;19.65;13.30;;;;;;;18.20;84.20;101129.66;5047589;28;20024;-56
2021/07/27 03:17:28;;;;;;;18.65;13.70;;;;;;;18.19;84.20;101133.47;5046881;28;20044;-56
2021/07/27 03:19:54;;;;;;;15.38;12.45;;;;;;;18.20;84.06;101126.94;5044559;28;20184;-56
2021/07/27 03:22:23;;;;;;;19.08;12.55;;;;;;;18.20;84.09;101132.38;5045703;28;20379;-56
2021/07/27 03:24:48;;;;;;;19.23;13.57;;;;;;;18.24;84.15;101135.31;5045429;28;20387;-54
2021/07/27 03:27:14;;;;;;;16.50;11.63;;;;;;;18.25;84.20;101132.28;5045545;28;20032;-56
2021/07/27 03:29:41;;;;;;;18.13;13.07;;;;;;;18.29;84.08;101130.63;5050503;28;20035;-56
2021/07/27 03:32:06;;;;;;;16.90;13.25;;;;;;;18.31;83.87;101133.88;5046040;28;20045;-56
2021/07/27 03:34:31;;;;;;;16.65;12.65;;;;;;;18.32;83.71;101130.06;5043962;28;20443;-56
2021/07/27 03:36:57;;;;;;;18.45;12.98;;;;;;;18.32;83.81;101135.47;5045894;28;20025;-56
2021/07/27 03:39:22;;;;;;;19.35;12.43;;;;;;;18.32;83.55;101142.81;5045431;28;20025;-56
2021/07/27 03:41:48;;;;;;;18.88;11.65;;;;;;;18.29;83.81;101149.59;5046917;28;20347;-56
2021/07/27 03:44:17;;;;;;;17.42;12.45;;;;;;;18.30;84.18;101150.41;5046211;28;20074;-56
2021/07/27 03:46:45;;;;;;;17.08;12.40;;;;;;;18.32;84.06;101151.75;5044802;28;20048;-56
2021/07/27 03:49:10;;;;;;;15.27;12.35;;;;;;;18.37;84.01;101151.69;5046966;28;20202;-56
2021/07/27 03:51:36;;;;;;;15.60;13.20;;;;;;;18.45;83.93;101147.50;5044077;28;20033;-56
2021/07/27 03:54:01;;;;;;;18.20;12.88;;;;;;;18.53;83.73;101148.78;5046255;28;20023;-56
2021/07/27 03:56:27;;;;;;;18.05;12.82;;;;;;;18.60;83.98;101154.66;5046797;28;20037;-55
2021/07/27 03:58:53;;;;;;;18.50;13.52;;;;;;;18.66;83.72;101157.03;5030790;28;20119;-56
2021/07/27 04:01:18;;;;;;;17.00;12.60;;;;;;;18.72;83.82;101155.06;5044766;28;20494;-56
2021/07/27 04:03:43;;;;;;;20.70;14.10;;;;;;;18.80;83.68;101148.16;5043304;28;20425;-56
2021/07/27 04:06:09;;;;;;;19.50;13.63;;;;;;;18.85;83.49;101148.09;5045330;28;20028;-56
2021/07/27 04:08:34;;;;;;;19.13;13.23;;;;;;;18.93;83.51;101148.25;5045003;28;20503;-57
2021/07/27 04:11:04;;;;;;;18.08;13.50;;;;;;;19.00;83.51;101137.81;5045101;28;20388;-56
2021/07/27 04:13:31;;;;;;;23.02;13.70;;;;;;;19.08;83.84;101132.81;5044136;28;20051;-56
2021/07/27 04:15:59;;;;;;;21.13;14.32;;;;;;;19.24;83.43;101132.28;5046997;28;20090;-56
2021/07/27 04:18:25;;;;;;;21.02;13.77;;;;;;;19.39;82.79;101139.38;5046795;28;20524;-56
2021/07/27 04:20:54;;;;;;;18.88;12.98;;;;;;;19.44;83.21;101142.00;5046258;28;20028;-56
2021/07/27 04:23:19;;;;;;;21.27;13.75;;;;;;;19.36;83.91;101145.41;5045280;28;20025;-56
2021/07/27 04:25:48;;;;;;;18.27;14.02;;;;;;;19.33;84.38;101151.44;5029622;28;20048;-56
2021/07/27 04:28:13;;;;;;;20.67;13.82;;;;;;;19.38;84.45;101153.25;5044872;28;20075;-56
2021/07/27 04:30:38;;;;;;;19.17;12.45;;;;;;;19.47;83.91;101162.34;5046047;28;20033;-57
2021/07/27 04:33:05;;;;;;;14.90;12.07;;;;;;;19.38;84.86;101155.97;5044033;28;20036;-56
2021/07/27 04:35:30;;;;;;;14.18;11.88;;;;;;;19.48;84.04;101159.31;5043326;28;20090;-56
2021/07/27 04:37:58;;;;;;;17.55;11.60;;;;;;;19.57;83.34;101157.59;5044733;28;20471;-56
2021/07/27 04:40:24;;;;;;;15.95;12.43;;;;;;;19.65;83.12;101164.25;5030497;28;20273;-56
2021/07/27 04:42:49;;;;;;;19.40;12.77;;;;;;;19.75;82.80;101171.38;5041903;28;20035;-56
2021/07/27 04:45:15;;;;;;;15.38;12.07;;;;;;;19.64;83.56;101168.06;5044804;28;20040;-56
2021/07/27 04:47:40;;;;;;;17.90;12.90;;;;;;;19.68;83.32;101173.69;5047984;28;20559;-56
2021/07/27 04:50:09;;;;;;;19.42;13.60;;;;;;;19.59;84.10;101170.88;5044478;28;20549;-56
2021/07/27 04:52:37;;;;;;;18.42;12.98;;;;;;;19.64;83.97;101164.53;5044197;28;20029;-56
2021/07/27 04:55:03;;;;;;;18.23;12.30;;;;;;;19.72;83.44;101180.97;5044521;28;20398;-56
2021/07/27 04:57:28;;;;;;;24.40;13.05;;;;;;;19.78;83.21;101179.78;5042642;28;20029;-56
2021/07/27 04:59:54;;;;;;;17.27;12.77;;;;;;;19.83;83.13;101181.59;5042788;28;20025;-56
2021/07/27 05:02:22;;;;;;;16.15;12.65;;;;;;;19.86;83.20;101189.16;5042418;28;20051;-56
2021/07/27 05:04:47;;;;;;;20.35;13.35;;;;;;;19.90;83.12;101193.69;5042663;28;20039;-55
2021/07/27 05:07:12;;;;;;;17.33;12.45;;;;;;;19.88;83.49;101195.91;5042968;28;20024;-56
2021/07/27 05:09:38;;;;;;;15.35;11.80;;;;;;;19.85;83.82;101196.50;5040701;28;20122;-56
2021/07/27 05:12:04;;;;;;;15.75;11.50;;;;;;;19.85;83.74;101190.25;5042750;28;20039;-56
2021/07/27 05:14:30;;;;;;;17.42;11.68;;;;;;;19.67;84.66;101193.84;5043950;28;20411;-57
2021/07/27 05:16:56;;;;;;;13.32;11.05;;;;;;;19.68;84.32;101196.25;5043295;28;20028;-55
2021/07/27 05:19:22;;;;;;;14.30;10.88;;;;;;;19.47;85.57;101195.75;5046700;28;20036;-56
2021/07/27 05:21:50;;;;;;;12.52;9.80;;;;;;;19.49;85.12;101195.47;5042910;28;20033;-56
2021/07/27 05:24:15;;;;;;;12.82;9.80;;;;;;;19.76;83.37;101197.50;5044336;28;20146;-56
2021/07/27 05:26:41;;;;;;;14.07;9.82;;;;;;;19.85;82.66;101195.69;5044219;28;20131;-57
2021/07/27 05:29:06;;;;;;;13.50;10.38;;;;;;;20.02;81.57;101185.03;5042007;28;20029;-55
2021/07/27 05:31:31;;;;;;;13.10;9.15;;;;;;;20.12;81.08;101190.31;5040396;28;20033;-56
2021/07/27 05:33:58;;;;;;;11.50;9.43;;;;;;;20.25;80.99;101193.31;5049219;28;20082;-56
2021/07/27 05:36:23;;;;;;;11.55;9.55;;;;;;;20.43;80.44;101200.59;5046532;28;20142;-57
2021/07/27 05:38:51;;;;;;;12.48;8.73;;;;;;;20.54;79.98;101202.03;5027999;28;20048;-55
2021/07/27 05:41:16;;;;;;;11.35;8.48;;;;;;;20.61;79.60;101207.84;5043577;28;20036;-56
2021/07/27 05:43:44;;;;;;;10.25;8.43;;;;;;;20.61;79.76;101213.28;5048532;28;20029;-54
2021/07/27 05:46:09;;;;;;;13.98;8.88;;;;;;;20.69;78.75;101215.31;5048274;28;20029;-55
2021/07/27 05:48:34;;;;;;;12.77;8.02;;;;;;;20.70;78.59;101206.03;5046088;28;20087;-56
2021/07/27 05:51:02;;;;;;;13.13;8.68;;;;;;;20.75;77.90;101205.13;5047001;28;20029;-55
2021/07/27 05:53:28;;;;;;;11.35;7.25;;;;;;;20.75;77.46;101208.66;5046507;28;20357;-56
2021/07/27 05:55:53;;;;;;;11.85;8.05;;;;;;;20.81;77.26;101198.44;5046730;28;20443;-56
2021/07/27 05:58:19;;;;;;;12.25;8.63;;;;;;;20.86;77.07;101200.28;5050314;28;20363;-56
2021/07/27 06:00:44;;;;;;;13.25;8.00;;;;;;;20.90;77.25;101203.97;5046538;28;20054;-56
2021/07/27 06:03:12;;;;;;;11.88;8.50;;;;;;;20.87;77.78;101199.16;5048266;28;20098;-56
2021/07/27 06:05:37;;;;;;;10.60;8.75;;;;;;;20.99;77.44;101196.69;5043586;28;20574;-56
2021/07/27 06:08:03;;;;;;;10.77;8.30;;;;;;;21.48;75.95;101203.22;5043843;28;20021;-57
2021/07/27 06:10:28;;;;;;;12.65;7.68;;;;;;;21.95;74.10;101196.28;5044947;28;20032;-57
2021/07/27 06:12:54;;;;;;;12.65;8.23;;;;;;;22.08;72.33;101189.13;5046394;28;20053;-57
2021/07/27 06:15:19;;;;;;;8.95;6.82;;;;;;;22.10;71.83;101184.19;5050621;28;20525;-56
2021/07/27 06:17:45;;;;;;;12.00;7.25;;;;;;;22.22;71.20;101184.38;5043108;28;20483;-57
2021/07/27 06:20:11;;;;;;;12.93;7.28;;;;;;;22.43;69.78;101182.66;5049678;28;20021;-56
2021/07/27 06:22:36;;;;;;;10.57;7.40;;;;;;;22.46;69.89;101187.53;5050968;28;20028;-57
2021/07/27 06:25:05;;;;;;;7.80;6.80;;;;;;;22.42;69.38;101185.72;5047168;28;20043;-57
2021/07/27 06:27:30;;;;;;;11.27;6.82;;;;;;;22.61;69.46;101187.06;5049097;28;20064;-56
2021/07/27 06:29:56;;;;;;;7.93;6.13;;;;;;;22.73;68.39;101191.09;5046776;28;20048;-57
2021/07/27 06:32:21;;;;;;;11.55;6.43;;;;;;;22.81;68.13;101185.66;5049480;28;20027;-56
2021/07/27 06:34:46;;;;;;;11.25;6.57;;;;;;;22.65;68.37;101183.72;5046429;28;20037;-55
2021/07/27 06:37:12;;;;;;;8.57;6.88;;;;;;;22.60;67.99;101190.91;5047246;28;20029;-56
2021/07/27 06:39:38;;;;;;;7.65;6.40;;;;;;;22.81;67.84;101190.31;5044273;28;20722;-56
2021/07/27 06:42:04;;;;;;;12.13;7.00;;;;;;;22.96;67.58;101192.59;5050916;28;20502;-57
2021/07/27 06:44:30;;;;;;;13.35;6.75;;;;;;;23.10;67.53;101200.66;5024136;28;20411;-57
2021/07/27 06:46:55;;;;;;;11.43;6.47;;;;;;;23.11;67.48;101194.84;5044270;28;20021;-56
2021/07/27 06:49:21;;;;;;;7.47;6.65;;;;;;;23.07;67.32;101193.09;5043793;28;20482;-57
2021/07/27 06:51:47;;;;;;;11.27;6.95;;;;;;;23.16;66.94;101191.16;5046101;28;20395;-57
2021/07/27 06:54:12;;;;;;;11.18;6.32;;;;;;;23.31;66.05;101187.13;5051364;28;20101;-56
2021/07/27 06:56:38;;;;;;;6.53;5.70;;;;;;;23.58;65.74;101188.75;5045961;28;20075;-56
2021/07/27 06:59:04;;;;;;;11.35;7.07;;;;;;;23.50;65.60;101190.31;5045432;28;20237;-56
2021/07/27 07:01:29;;;;;;;10.35;6.72;;;;;;;23.33;65.11;101195.81;5044198;28;20032;-57
2021/07/27 07:03:55;;;;;;;11.55;5.95;;;;;;;23.71;64.66;101199.50;5046022;28;20032;-57
2021/07/27 07:06:20;;;;;;;10.45;5.68;;;;;;;23.97;63.13;101199.41;5045618;28;20036;-56
2021/07/27 07:08:48;;;;;;;8.77;5.70;;;;;;;24.23;62.38;101199.31;5045580;28;20395;-57
2021/07/27 07:11:13;;;;;;;6.43;5.53;;;;;;;24.11;61.35;101193.75;5047599;28;20120;-57
2021/07/27 07:13:39;;;;;;;6.78;5.38;;;;;;;24.34;60.96;101192.38;5045002;28;20503;-56
2021/07/27 07:16:09;;;;;;;7.57;5.95;;;;;;;24.55;59.77;101186.94;5044942;28;20040;-56
2021/07/27 07:18:34;;;;;;;7.40;5.13;;;;;;;24.57;58.87;101195.63;5045613;28;20028;-55
2021/07/27 07:21:03;;;;;;;6.55;5.35;;;;;;;24.57;57.82;101192.88;5046006;28;20029;-56
2021/07/27 07:23:28;;;;;;;9.40;5.35;;;;;;;24.72;58.73;101191.50;5043638;28;20115;-56
2021/07/27 07:25:54;;;;;;;7.45;5.03;;;;;;;25.05;58.38;101205.31;5046080;28;20448;-56
2021/07/27 07:28:20;;;;;;;8.70;5.65;;;;;;;25.28;57.45;101203.81;5026557;28;20032;-57
2021/07/27 07:30:46;;;;;;;12.32;5.32;;;;;;;25.41;56.37;101199.19;5045107;28;20024;-57
2021/07/27 07:33:12;;;;;;;9.05;5.15;;;;;;;25.57;55.88;101202.91;5045546;28;20029;-57
2021/07/27 07:35:37;;;;;;;10.57;5.18;;;;;;;25.54;55.15;101203.59;5045321;28;20428;-57
2021/07/27 07:38:03;;;;;;;7.95;5.03;;;;;;;25.61;54.83;101206.56;5044452;28;20029;-57
2021/07/27 07:40:29;;;;;;;8.30;5.00;;;;;;;25.70;55.05;101203.00;5044917;28;20028;-57
2021/07/27 07:43:02;;;;;;;6.57;4.80;;;;;;;25.64;55.13;101205.09;5044581;28;20078;-55
2021/07/27 07:45:29;;;;;;;7.72;4.38;;;;;;;25.88;54.77;101198.91;5045097;28;20029;-57
2021/07/27 07:47:55;;;;;;;6.60;4.60;;;;;;;26.10;52.94;101200.41;5048588;28;20482;-57
2021/07/27 07:50:21;;;;;;;6.68;4.20;;;;;;;26.23;52.68;101201.25;5026546;28;20380;-56
2021/07/27 07:52:56;;;;;;;4.82;4.20;;;;;;;26.33;51.69;101196.06;5043065;28;20028;-56
2021/07/27 07:55:21;;;;;;;4.72;3.70;;;;;;;26.54;50.60;101198.72;5043915;28;20051;-57
2021/07/27 07:57:47;;;;;;;3.60;3.00;;;;;;;26.59;50.21;101206.75;5044617;28;20066;-56
2021/07/27 08:00:13;;;;;;;6.95;3.63;;;;;;;26.44;50.30;101201.94;5045076;28;20025;-57
2021/07/27 08:02:38;;;;;;;4.05;3.40;;;;;;;26.70;49.90;101202.38;5043984;28;20400;-57
2021/07/27 08:05:04;;;;;;;6.00;3.85;;;;;;;26.83;48.86;101199.59;5345182;22;20049;-54
2021/07/27 08:07:30;;;;;;;5.70;4.10;;;;;;;26.64;48.52;101200.22;5042307;28;20059;-56
2021/07/27 08:09:55;;;;;;;6.45;3.67;;;;;;;26.76;48.24;101187.25;5044723;28;20029;-56
2021/07/27 08:12:21;;;;;;;3.63;3.13;;;;;;;27.03;47.45;101193.97;5044277;28;20052;-55
2021/07/27 08:14:46;;;;;;;5.90;3.25;;;;;;;27.11;47.08;101194.97;5042473;28;20033;-57
2021/07/27 08:17:12;;;;;;;5.55;3.72;;;;;;;26.98;47.86;101196.13;5042352;28;20044;-56
2021/07/27 08:19:38;;;;;;;4.03;3.20;;;;;;;26.87;47.31;101192.25;5040532;28;20518;-56
2021/07/27 08:22:04;;;;;;;5.20;3.25;;;;;;;27.10;46.71;101194.16;5044408;28;20371;-55
2021/07/27 08:24:31;;;;;;;3.33;3.03;;;;;;;27.22;46.12;101196.06;5043770;28;20079;-55
2021/07/27 08:26:57;;;;;;;8.30;2.90;;;;;;;27.53;46.46;101191.81;5039787;28;20106;-56
2021/07/27 08:29:22;;;;;;;6.43;3.00;;;;;;;27.45;45.10;101195.50;5040318;28;20506;-56
2021/07/27 08:31:49;;;;;;;9.65;3.85;;;;;;;27.65;45.54;101195.34;5042942;28;20414;-55
2021/07/27 08:34:17;;;;;;;4.47;3.45;;;;;;;27.50;45.32;101184.25;5038844;28;20021;-56
2021/07/27 08:36:44;;;;;;;3.92;3.50;;;;;;;27.65;45.31;101203.59;5040285;28;20040;-56
2021/07/27 08:39:10;;;;;;;3.42;3.10;;;;;;;27.94;44.68;101198.81;5038974;28;20482;-57
2021/07/27 08:41:38;;;;;;;4.35;3.45;;;;;;;27.95;43.65;101190.19;5039768;28;20036;-56
2021/07/27 08:44:16;;;;;;;3.92;3.10;;;;;;;28.02;45.00;101184.06;5041244;28;20187;-56
2021/07/27 08:46:44;;;;;;;3.92;2.75;;;;;;;28.28;44.17;101194.56;5043722;28;20111;-56
2021/07/27 08:49:09;;;;;;;6.30;3.75;;;;;;;28.29;44.41;101194.19;5044548;28;20433;-56
2021/07/27 08:51:38;;;;;;;7.20;3.30;;;;;;;28.22;44.42;101196.78;5021983;28;20469;-57
2021/07/27 08:54:07;;;;;;;5.03;3.00;;;;;;;28.53;44.02;101195.94;5039252;28;20027;-54
2021/07/27 08:56:32;;;;;;;3.08;2.22;;;;;;;28.34;40.10;101197.84;5042551;28;20032;-55
2021/07/27 08:58:58;;;;;;;3.38;2.75;;;;;;;27.79;40.88;101191.34;5043925;28;20430;-56
2021/07/27 09:01:26;;;;;;;3.78;2.40;;;;;;;27.73;42.13;101188.06;5036975;28;20433;-56
2021/07/27 09:03:52;;;;;;;7.30;3.10;;;;;;;28.23;42.62;101187.34;5040193;28;20028;-55
2021/07/27 09:06:22;;;;;;;3.33;2.70;;;;;;;28.48;41.66;101187.94;5044746;28;20020;-55
2021/07/27 09:08:47;;;;;;;8.43;3.25;;;;;;;28.53;41.68;101193.19;5043311;28;20135;-55
2021/07/27 09:11:17;;;;;;;6.20;2.63;;;;;;;28.24;42.02;101193.66;5045974;28;20025;-55
2021/07/27 09:13:54;;;;;;;3.00;2.60;;;;;;;28.27;43.27;101190.22;5045460;28;20060;-56
2021/07/27 09:16:19;;;;;;;3.22;2.72;;;;;;;28.68;40.77;101193.50;5041470;28;20030;-58
2021/07/27 09:18:45;;;;;;;4.25;2.90;;;;;;;28.67;41.77;101189.94;5047303;28;20032;-56
2021/07/27 09:21:21;;;;;;;3.47;2.83;;;;;;;28.97;40.84;101183.94;5048135;28;20033;-56
2021/07/27 09:23:46;;;;;;;2.97;2.67;;;;;;;28.91;39.79;101193.66;5031167;28;20029;-56
2021/07/27 09:26:12;;;;;;;3.15;2.60;;;;;;;29.11;39.94;101189.75;5042631;28;20040;-53
2021/07/27 09:28:37;;;;;;;4.32;2.63;;;;;;;29.14;39.40;101189.00;5041157;28;20600;-56
2021/07/27 09:31:03;;;;;;;5.35;2.70;;;;;;;29.21;39.67;101189.16;5047476;28;20025;-55
2021/07/27 09:33:33;;;;;;;5.43;2.70;;;;;;;29.36;38.96;101193.00;5043515;28;20078;-54
2021/07/27 09:35:59;;;;;;;4.93;3.05;;;;;;;29.35;39.85;101185.88;5046749;28;20033;-55
2021/07/27 09:38:26;;;;;;;6.38;3.28;;;;;;;28.81;41.44;101192.22;5039241;28;20027;-56
2021/07/27 09:41:06;;;;;;;4.13;3.03;;;;;;;28.73;40.18;101193.25;5044046;28;20036;-56
2021/07/27 09:43:32;;;;;;;3.58;2.65;;;;;;;28.51;41.25;101189.19;5044746;28;20360;-56
2021/07/27 09:46:02;;;;;;;4.07;2.85;;;;;;;28.24;42.42;101188.16;5042982;28;20029;-55
2021/07/27 09:48:30;;;;;;;3.10;2.70;;;;;;;28.22;42.44;101187.72;5047053;28;20104;-54
2021/07/27 09:50:58;;;;;;;4.43;2.90;;;;;;;28.13;42.22;101185.13;5047582;28;20021;-56
2021/07/27 09:53:24;;;;;;;3.50;2.72;;;;;;;28.82;41.71;101185.53;5046247;28;20051;-57
2021/07/27 09:55:51;;;;;;;5.03;2.70;;;;;;;28.85;41.25;101182.06;5047157;28;20029;-55
2021/07/27 09:58:17;;;;;;;3.47;2.80;;;;;;;28.59;41.04;101186.25;5043971;28;20017;-56
2021/07/27 10:00:42;;;;;;;3.53;3.00;;;;;;;28.59;41.60;101186.25;5045561;28;20037;-56
2021/07/27 10:03:12;;;;;;;3.55;2.53;;;;;;;29.33;38.74;101194.53;5042886;28;20079;-56
2021/07/27 10:05:38;;;;;;;4.20;2.63;;;;;;;28.85;38.77;101193.09;5046349;28;20029;-55
2021/07/27 10:08:03;;;;;;;6.30;3.35;;;;;;;29.16;38.37;101197.72;5047247;28;20025;-55
2021/07/27 10:10:40;;;;;;;3.72;2.42;;;;;;;29.37;38.38;101187.09;5042964;28;20032;-54
2021/07/27 10:13:14;;;;;;;5.00;2.80;;;;;;;29.30;37.73;101198.00;5040857;28;20033;-55
2021/07/27 10:15:41;;;;;;;8.20;2.95;;;;;;;29.21;39.20;101194.66;5043791;28;20029;-55
2021/07/27 10:18:07;;;;;;;4.22;2.97;;;;;;;29.85;36.85;101186.81;5041709;28;20492;-54
2021/07/27 10:20:33;;;;;;;3.20;2.88;;;;;;;30.20;36.55;101187.44;5039040;28;20029;-53
2021/07/27 10:22:58;;;;;;;5.13;2.95;;;;;;;30.32;35.86;101186.41;5042381;28;20354;-54
2021/07/27 10:25:27;;;;;;;6.90;2.90;;;;;;;30.37;36.81;101197.16;5038567;28;20032;-54
2021/07/27 10:27:54;;;;;;;8.00;3.22;;;;;;;30.63;36.24;101196.38;5046758;28;20108;-57
2021/07/27 10:30:38;;;;;;;6.15;3.05;;;;;;;30.45;35.71;101192.53;5043626;28;20025;-55
2021/07/27 10:33:04;;;;;;;6.22;2.90;;;;;;;30.31;37.45;101193.13;5040104;28;20063;-56
2021/07/27 10:35:34;;;;;;;6.95;2.90;;;;;;;29.92;37.61;101192.44;5043734;28;20055;-55
2021/07/27 10:38:12;;;;;;;4.07;2.97;;;;;;;29.92;37.93;101195.22;5044763;28;20415;-56
2021/07/27 10:40:38;;;;;;;6.47;3.40;;;;;;;29.90;38.57;101187.28;5041697;28;20029;-55
2021/07/27 10:43:06;;;;;;;3.38;2.90;;;;;;;30.27;37.87;101195.81;5044929;28;20029;-55
2021/07/27 10:45:32;;;;;;;4.63;2.58;;;;;;;30.30;36.89;101188.75;5040327;28;20020;-56
2021/07/27 10:47:58;;;;;;;7.47;3.30;;;;;;;30.04;37.70;101197.81;5046550;28;20013;-56
2021/07/27 10:50:27;;;;;;;3.83;3.30;;;;;;;29.82;37.79;101201.38;5046112;28;20393;-56
2021/07/27 10:53:09;;;;;;;4.05;3.08;;;;;;;29.90;38.15;101198.34;5038947;28;20024;-56
2021/07/27 10:55:41;;;;;;;7.32;3.30;;;;;;;29.88;37.51;101202.66;5044480;28;20020;-53
2021/07/27 10:58:16;;;;;;;4.35;2.55;;;;;;;29.86;37.08;101196.69;5043878;28;20415;-55
2021/07/27 11:00:41;;;;;;;4.72;2.75;;;;;;;30.31;36.52;101196.66;5039468;28;20035;-55
2021/07/27 11:03:06;;;;;;;4.90;3.08;;;;;;;30.33;36.73;101190.78;5042869;28;20025;-55
2021/07/27 11:05:32;;;;;;;3.30;2.80;;;;;;;30.74;35.86;101183.50;5036505;28;20021;-55
2021/07/27 11:07:58;;;;;;;5.05;3.47;;;;;;;30.70;35.82;101185.41;5045587;28;20021;-56
2021/07/27 11:10:25;;;;;;;6.30;2.83;;;;;;;30.66;36.00;101173.50;5040170;28;20398;-56
2021/07/27 11:12:51;;;;;;;3.40;2.72;;;;;;;30.31;36.82;101179.28;5041881;28;20021;-55
2021/07/27 11:15:21;;;;;;;4.25;3.00;;;;;;;30.28;36.87;101191.88;5044770;28;20044;-55
2021/07/27 11:17:51;;;;;;;2.88;2.47;;;;;;;30.03;36.68;101182.38;5044545;28;20391;-54
2021/07/27 11:20:30;;;;;;;4.60;3.20;;;;;;;29.85;37.90;101173.81;5043370;28;20078;-56
2021/07/27 11:22:58;;;;;;;7.53;2.92;;;;;;;29.75;37.32;101177.16;5038902;28;20487;-54
2021/07/27 11:25:25;;;;;;;4.45;2.50;;;;;;;30.25;36.55;101178.81;5038468;28;20431;-55
2021/07/27 11:27:52;;;;;;;3.08;2.47;;;;;;;29.27;36.77;101182.19;5043268;28;20029;-54
2021/07/27 11:30:19;;;;;;;6.30;2.90;;;;;;;29.72;35.58;101167.66;5034897;28;20033;-54
2021/07/27 11:32:47;;;;;;;5.05;2.83;;;;;;;30.28;34.47;101168.97;5040241;28;20498;-55
2021/07/27 11:35:24;;;;;;;12.65;3.03;;;;;;;30.67;34.28;101175.91;5041733;28;20387;-53
2021/07/27 11:38:04;;;;;;;2.90;2.60;;;;;;;30.60;33.21;101174.97;5039701;28;20043;-55
2021/07/27 11:40:30;;;;;;;3.92;2.13;;;;;;;30.66;33.65;101163.25;5040848;28;20445;-57